Amqui, Canada
Current Conditions -  °F | °C
As of 10:00 PM on Monday 20 Oct 2014 (Local Time) from CYYY Reporting Station
Few Clouds Few Clouds  
Wind Chill: 29°   Ceiling: Unl
Heat Index: 37°   Visibility: 30mi
Dew Point: 27°   Wind: 14mph
Humidity: 65%   Direction: 250°WSW
Pressure: 29.88"   Gusts: 23mph
Location:  48.46°N, 67.43°W
Report Text: CYYY 210200Z 25012G20KT 30SM FEW040 03/M03 A2988 RMK SC2 SLP120
Loading
Personal Weather Stations






























Interactive Weather Map
Tropical Storm Tracking
New forecast layout! Learn more

10-Day Weather Forecast

Advertisements
Track Severe Weather on mobile